createdAt,value
2023-06-29T00:01:37.208Z,21
2023-06-29T00:16:37.176Z,20.8
2023-06-29T00:31:37.057Z,20.6
2023-06-29T00:46:37.070Z,20.5
2023-06-29T01:01:36.964Z,20.3
2023-06-29T01:16:37.067Z,19.9
2023-06-29T01:31:37.010Z,19.7
2023-06-29T01:46:36.980Z,19.5
2023-06-29T02:01:36.955Z,19.2
2023-06-29T02:16:36.922Z,18.9
2023-06-29T02:31:36.919Z,18.8
2023-06-29T02:46:36.928Z,18.6
2023-06-29T03:01:36.909Z,18.3
2023-06-29T03:16:36.826Z,18.2
2023-06-29T03:31:36.744Z,18.2
2023-06-29T03:46:36.739Z,18.1
2023-06-29T04:01:36.685Z,18
2023-06-29T04:16:36.706Z,18.2
2023-06-29T04:31:36.605Z,19
2023-06-29T04:46:36.677Z,19.7
2023-06-29T05:01:36.668Z,20.9
2023-06-29T05:16:36.626Z,22.3
2023-06-29T05:31:36.588Z,23.4
2023-06-29T05:46:36.534Z,24.7
2023-06-29T06:01:36.591Z,25.6
2023-06-29T06:16:36.524Z,27
2023-06-29T06:31:36.396Z,27.9
2023-06-29T06:46:36.411Z,28.3
2023-06-29T07:01:36.364Z,29.8
2023-06-29T07:16:36.379Z,29.7
2023-06-29T07:31:36.363Z,30.3
2023-06-29T07:46:36.310Z,30.7
2023-06-29T08:01:36.258Z,31.8
2023-06-29T08:16:36.261Z,33.6
2023-06-29T08:31:36.271Z,35.1
2023-06-29T08:46:36.313Z,31
2023-06-29T09:01:36.168Z,27.7
2023-06-29T09:16:36.239Z,30.1
2023-06-29T09:31:36.143Z,29.9
2023-06-29T09:46:36.328Z,31.5
2023-06-29T10:01:36.079Z,31.4
2023-06-29T10:16:36.168Z,32
2023-06-29T10:31:36.060Z,33
2023-06-29T10:46:36.033Z,32.7
2023-06-29T11:01:35.968Z,34.3
2023-06-29T11:16:35.958Z,33.3
2023-06-29T11:31:35.927Z,30.9
2023-06-29T11:46:35.947Z,30.5
2023-06-29T12:01:35.804Z,30.4
2023-06-29T12:31:35.844Z,29.8
2023-06-29T12:46:35.793Z,29.3
2023-06-29T13:01:35.827Z,29.2
2023-06-29T13:16:35.775Z,28.9
2023-06-29T13:31:35.657Z,29.1
2023-06-29T13:46:35.664Z,29.5
2023-06-29T14:01:35.645Z,29.4
2023-06-29T14:16:35.577Z,30.1
2023-06-29T14:31:35.582Z,30.2
2023-06-29T14:46:35.667Z,30
2023-06-29T15:01:35.597Z,30.3
2023-06-29T15:16:35.489Z,31.5
2023-06-29T15:31:35.416Z,32.4
2023-06-29T15:46:35.456Z,31.8
2023-06-29T16:01:35.479Z,31.3
2023-06-29T16:16:35.491Z,31.5
2023-06-29T16:31:35.406Z,31.6
2023-06-29T16:46:35.466Z,31.7
2023-06-29T17:01:35.353Z,31.7
2023-06-29T17:16:35.473Z,31.2
2023-06-29T17:31:35.237Z,29.5
2023-06-29T17:46:36.187Z,28.5
2023-06-29T18:01:35.244Z,27.3
2023-06-29T18:16:35.282Z,26.2
2023-06-29T18:31:35.124Z,25.6
2023-06-29T18:46:35.135Z,25.3
2023-06-29T19:01:35.104Z,25
2023-06-29T19:16:35.089Z,24.1
2023-06-29T19:31:35.037Z,22
2023-06-29T19:46:35.108Z,20
2023-06-29T20:01:34.984Z,19
2023-06-29T20:16:34.996Z,18.7
2023-06-29T20:31:34.968Z,18.8
2023-06-29T20:46:34.930Z,18.7
2023-06-29T21:01:34.954Z,18.7
2023-06-29T21:16:35.025Z,18.8
2023-06-29T21:31:34.848Z,18.9
2023-06-29T21:46:34.782Z,18.9
2023-06-29T22:01:34.811Z,18.6
2023-06-29T22:16:34.816Z,18.4
2023-06-29T22:31:34.698Z,18.4
2023-06-29T22:46:34.728Z,18.4
2023-06-29T23:01:34.648Z,18.3
2023-06-29T23:16:34.731Z,18.3
2023-06-29T23:31:34.632Z,18.3
2023-06-29T23:46:34.642Z,18.2
